Gornji Milanovac/Takovo

RS-0043 · Central Serbia, Serbia

罗盘
风向 的 风向 150° 直升机
风: 8 kt, 3 beaufort
0 ft 1.000 2.000 3.000 4.000 5.000
CAVOK
METAR LYKV 232300Z 15008KT CAVOK 14/06 Q1007 NOSIG

METAR Gornji Milanovac/Takovo - RS-0043

Gornji Milanovac/Takovo是,Serbia中的直升机场。 该机场位于纬度44,00583和经度20,45833。 这个机场没有ICAO代码,我们使用RS-0043作为参考。 机场在Beograd FIR中。

该航空气象观测是针对Morava Airport在2024年2月24日 00:00, 当地时间进行的。

机场观察

风向为150°,速度为8 kt。

天气为CAVOK。这意味着在5.000 ft或MSA(最低安全高度)以下(以较高者为准)以下没有云。这也意味着没有观测到积雨云或高耸的积云,可见度为10 km 或者更多或更高。此外,不会有雾,降雨或其他重要天气。

温度和风寒是14 °C。 露点为6 °C,相对湿度为59%。 海平面上的气压为1007 hPa (QNH)。

白天

今天,太阳从06:25升起,在17:17降落。 这适用于Gornji Milanovac/Takovo,世界夏令时可能有所不同。 当地时间与世界标准时间之间的时差为+1 小时。 当前,没有夏令时有效。

公司介绍

我们没有关于这个机场的公司信息。

体会

到Vliegles.nl去找飞行课程,跳伞和其他飞行体验。 浏览页面,了解Gornji Milanovac/Takovo附近所有可用的活动。 你也可以使用搜索功能来寻找你所在地附近的特定飞行课程、跳伞或其他飞行体验。

温度 & 天气

温度 14 °C
露点 6 °C
相对湿度 59%
Kp-index 0 (0-9)

白天

日出
06:24 (5:53)
中午
11:51
日落
17:17

小工具

你想在你的网站上有一个关于Gornji Milanovac/Takovo的当前航空天气(METAR)的小部件吗?

显示HTML代码
?>